Airfield :
LOGIN :

Register | Disclaimer

   EN    FR    IT 

 










Legend :    VFR   Marginal VFR   IFR   Intensive IFR   Very Intensive IFR
Visi :
Ceiling :
>= 8 km
>= 3000ft
5 to 8 km
1000 to 3000 ft
1500m to 5 km
500 to 1000 ft
800 to 1500m
200 to 500 ft
< 800m
< 200 ft
Symbols :   Thunderstorms  Fog  Heavy snow  Heavy precipitations  Wind > 20 kt
SIGMETs :     Misc.  Thunderstorms  Icing  Turbulence  Mountain Waves  Volcanic Ashes






- Airport Elevation : 919 ft
- IATA code : AZR


DAUA - Touat Cheikh Sidi Mohamed Belk

CURRENT METAR :
  • 021300Z 25020KT 7000 DRSA NSC 33/// Q1007

EXPIRED METARs :
  • 021200Z 24024KT 7000 DRSA NSC 32/// Q1009
  • 021100Z 26022KT 9000 DRSA NSC 32/// Q1009

TAF TAF DAUA
Valid from the 02 at 12:00 until the 03 at 12:00 UTC


021100Z 0212/0312 26024KT 8000 NSC
TEMPO 0212/0218 3000 DRSA
BECMG 0218/0221 26014KT
PROB30
TEMPO 0218/0224 4000 HZ
BECMG 0305/0308 01017KT 5000 DRSA
TEMPO 0305/0312 01020G35KT 0800 BLSA



MET'MAP, your aeronautical weather chart ! - Copyright ORBIFLY December 2007 - Disclaimer

ORBIFLY MET'MAP TEAM :

Programming & Development : Alexandra Zaïnal
Concept & original design : Baudouin d'Aumeries
Assistance for programming : Marc-Olivier Méhu
Technical & hardware support : Manuel Goepfert

Contact : metmap@orbifly.com




SOURCES & CREDITS :

   NOAA